Terminal Aerodrome Forecast
Issued by NWS

Home | Current Version | Previous Version | Text Only | Print | Product List | Glossary On
Versions: 1 2 3 4 5 6 7 8 9 10 11 12 13 14 15 16 17 18 19 20
381
FTUS43 KFGF 060532
TAFDVL
TAF
KDVL 060532Z 0606/0706 23007KT P6SM BKN250
     FM061200 19011KT P6SM BKN120
     FM062000 23015G22KT P6SM BKN100
     FM070000 25024G30KT P6SM BKN250
     FM070500 29032G40KT P6SM BKN050=

USA.gov is the U.S. government's official web portal to all federal, state and local government web resources and services.